sensor_id;sensor_type;location;lat;lon;timestamp;P1;durP1;ratioP1;P2;durP2;ratioP2
76758;SDS011;65701;45.588;5.186;2023-02-21T15:37:43;24.00;;;22.25;;
76758;SDS011;65701;45.588;5.186;2023-02-21T15:40:14;21.00;;;19.75;;
76758;SDS011;65701;45.588;5.186;2023-02-21T15:42:48;27.75;;;23.00;;
76758;SDS011;65701;45.588;5.186;2023-02-21T15:47:55;24.25;;;18.50;;
76758;SDS011;65701;45.588;5.186;2023-02-21T15:53:09;22.50;;;20.25;;
76758;SDS011;65701;45.588;5.186;2023-02-21T15:55:37;23.75;;;22.50;;
76758;SDS011;65701;45.588;5.186;2023-02-21T16:00:33;23.00;;;19.75;;
76758;SDS011;65701;45.588;5.186;2023-02-21T16:06:09;18.50;;;16.50;;
76758;SDS011;65701;45.588;5.186;2023-02-21T16:09:02;20.00;;;17.50;;
76758;SDS011;65701;45.588;5.186;2023-02-21T16:19:38;22.75;;;21.00;;
76758;SDS011;65701;45.588;5.186;2023-02-21T16:22:23;22.00;;;20.25;;
76758;SDS011;65701;45.588;5.186;2023-02-21T16:24:48;22.25;;;15.25;;
76758;SDS011;65701;45.588;5.186;2023-02-21T16:27:28;26.50;;;23.00;;
76758;SDS011;65701;45.588;5.186;2023-02-21T16:29:53;18.75;;;18.50;;
76758;SDS011;65701;45.588;5.186;2023-02-21T16:32:19;23.50;;;21.00;;
76758;SDS011;65701;45.588;5.186;2023-02-21T16:34:45;18.50;;;18.00;;
76758;SDS011;65701;45.588;5.186;2023-02-21T16:37:12;25.00;;;20.50;;
76758;SDS011;65701;45.588;5.186;2023-02-21T16:39:39;23.75;;;20.50;;
76758;SDS011;65701;45.588;5.186;2023-02-21T16:42:05;19.75;;;17.25;;
76758;SDS011;65701;45.588;5.186;2023-02-21T16:44:32;21.25;;;17.50;;
76758;SDS011;65701;45.588;5.186;2023-02-21T16:46:58;24.00;;;18.25;;
76758;SDS011;65701;45.588;5.186;2023-02-21T16:49:23;31.25;;;23.50;;
76758;SDS011;65701;45.588;5.186;2023-02-21T16:51:49;20.75;;;19.00;;
76758;SDS011;65701;45.588;5.186;2023-02-21T16:54:15;26.50;;;22.75;;
76758;SDS011;65701;45.588;5.186;2023-02-21T16:56:41;25.25;;;22.50;;
76758;SDS011;65701;45.588;5.186;2023-02-21T16:59:19;22.75;;;20.25;;
76758;SDS011;65701;45.588;5.186;2023-02-21T17:01:46;25.00;;;22.75;;
76758;SDS011;65701;45.588;5.186;2023-02-21T17:04:19;20.75;;;17.50;;
76758;SDS011;65701;45.588;5.186;2023-02-21T17:06:49;23.50;;;22.00;;
76758;SDS011;65701;45.588;5.186;2023-02-21T17:09:18;24.50;;;21.50;;
76758;SDS011;65701;45.588;5.186;2023-02-21T17:11:45;21.25;;;19.00;;
76758;SDS011;65701;45.588;5.186;2023-02-21T17:14:11;28.00;;;22.00;;
76758;SDS011;65701;45.588;5.186;2023-02-21T17:16:36;19.25;;;18.25;;
76758;SDS011;65701;45.588;5.186;2023-02-21T17:19:02;21.50;;;20.75;;
76758;SDS011;65701;45.588;5.186;2023-02-21T17:21:29;21.50;;;20.75;;
76758;SDS011;65701;45.588;5.186;2023-02-21T17:23:55;26.50;;;20.75;;
76758;SDS011;65701;45.588;5.186;2023-02-21T17:26:21;25.50;;;22.50;;
76758;SDS011;65701;45.588;5.186;2023-02-21T17:28:47;25.50;;;20.50;;
76758;SDS011;65701;45.588;5.186;2023-02-21T17:31:14;24.50;;;22.00;;
76758;SDS011;65701;45.588;5.186;2023-02-21T17:33:42;22.00;;;22.00;;
76758;SDS011;65701;45.588;5.186;2023-02-21T17:36:14;26.50;;;20.50;;
76758;SDS011;65701;45.588;5.186;2023-02-21T17:38:40;23.25;;;21.75;;
76758;SDS011;65701;45.588;5.186;2023-02-21T17:41:06;29.25;;;24.00;;
76758;SDS011;65701;45.588;5.186;2023-02-21T17:43:32;28.00;;;22.50;;
76758;SDS011;65701;45.588;5.186;2023-02-21T17:45:58;24.50;;;20.00;;
76758;SDS011;65701;45.588;5.186;2023-02-21T17:48:24;21.25;;;20.00;;
76758;SDS011;65701;45.588;5.186;2023-02-21T17:50:49;32.50;;;29.50;;
76758;SDS011;65701;45.588;5.186;2023-02-21T17:53:15;44.75;;;35.50;;
76758;SDS011;65701;45.588;5.186;2023-02-21T17:55:40;35.75;;;33.75;;
76758;SDS011;65701;45.588;5.186;2023-02-21T17:58:06;35.50;;;32.00;;
76758;SDS011;65701;45.588;5.186;2023-02-21T18:00:31;29.75;;;28.25;;
76758;SDS011;65701;45.588;5.186;2023-02-21T18:02:59;26.25;;;24.75;;
76758;SDS011;65701;45.588;5.186;2023-02-21T18:05:28;28.00;;;24.75;;
76758;SDS011;65701;45.588;5.186;2023-02-21T18:07:54;30.00;;;28.00;;
76758;SDS011;65701;45.588;5.186;2023-02-21T18:10:21;29.50;;;26.75;;
76758;SDS011;65701;45.588;5.186;2023-02-21T18:12:48;30.50;;;26.75;;
76758;SDS011;65701;45.588;5.186;2023-02-21T18:15:13;29.50;;;25.00;;
76758;SDS011;65701;45.588;5.186;2023-02-21T18:17:39;29.25;;;28.75;;
76758;SDS011;65701;45.588;5.186;2023-02-21T18:20:05;27.00;;;24.00;;
76758;SDS011;65701;45.588;5.186;2023-02-21T18:22:36;32.75;;;29.50;;
76758;SDS011;65701;45.588;5.186;2023-02-21T18:25:02;27.50;;;26.25;;
76758;SDS011;65701;45.588;5.186;2023-02-21T18:27:29;21.75;;;21.50;;
76758;SDS011;65701;45.588;5.186;2023-02-21T18:29:56;22.75;;;21.00;;
76758;SDS011;65701;45.588;5.186;2023-02-21T18:32:24;25.00;;;21.50;;
76758;SDS011;65701;45.588;5.186;2023-02-21T18:34:51;26.00;;;21.25;;
76758;SDS011;65701;45.588;5.186;2023-02-21T18:37:18;27.75;;;22.00;;
76758;SDS011;65701;45.588;5.186;2023-02-21T18:39:49;31.75;;;24.50;;
76758;SDS011;65701;45.588;5.186;2023-02-21T18:42:18;25.00;;;18.75;;
76758;SDS011;65701;45.588;5.186;2023-02-21T18:44:48;25.25;;;20.50;;
76758;SDS011;65701;45.588;5.186;2023-02-21T18:47:16;25.25;;;22.25;;
76758;SDS011;65701;45.588;5.186;2023-02-21T18:49:43;25.00;;;22.00;;
76758;SDS011;65701;45.588;5.186;2023-02-21T18:52:10;26.50;;;23.00;;
76758;SDS011;65701;45.588;5.186;2023-02-21T18:54:46;26.75;;;22.25;;
76758;SDS011;65701;45.588;5.186;2023-02-21T18:57:14;27.00;;;25.50;;
76758;SDS011;65701;45.588;5.186;2023-02-21T18:59:40;20.75;;;20.00;;
76758;SDS011;65701;45.588;5.186;2023-02-21T19:02:07;30.25;;;25.00;;
76758;SDS011;65701;45.588;5.186;2023-02-21T19:04:36;25.25;;;19.00;;
76758;SDS011;65701;45.588;5.186;2023-02-21T19:07:05;28.50;;;20.75;;
76758;SDS011;65701;45.588;5.186;2023-02-21T19:09:32;23.00;;;21.50;;
76758;SDS011;65701;45.588;5.186;2023-02-21T19:11:59;27.50;;;22.50;;
76758;SDS011;65701;45.588;5.186;2023-02-21T19:14:26;25.25;;;22.25;;
76758;SDS011;65701;45.588;5.186;2023-02-21T19:16:51;23.50;;;22.50;;
76758;SDS011;65701;45.588;5.186;2023-02-21T19:19:17;24.75;;;21.25;;
76758;SDS011;65701;45.588;5.186;2023-02-21T19:21:43;25.75;;;23.50;;
76758;SDS011;65701;45.588;5.186;2023-02-21T19:24:09;28.75;;;25.50;;
76758;SDS011;65701;45.588;5.186;2023-02-21T19:26:34;26.00;;;23.75;;
76758;SDS011;65701;45.588;5.186;2023-02-21T19:29:00;29.25;;;26.00;;
76758;SDS011;65701;45.588;5.186;2023-02-21T19:31:25;27.25;;;25.25;;
76758;SDS011;65701;45.588;5.186;2023-02-21T19:33:51;27.50;;;25.00;;
76758;SDS011;65701;45.588;5.186;2023-02-21T19:36:18;29.50;;;27.25;;
76758;SDS011;65701;45.588;5.186;2023-02-21T19:38:45;31.00;;;25.00;;
76758;SDS011;65701;45.588;5.186;2023-02-21T19:41:10;39.00;;;32.75;;
76758;SDS011;65701;45.588;5.186;2023-02-21T19:43:36;36.50;;;34.25;;
76758;SDS011;65701;45.588;5.186;2023-02-21T19:46:02;32.75;;;25.75;;
76758;SDS011;65701;45.588;5.186;2023-02-21T19:48:27;29.00;;;26.50;;
76758;SDS011;65701;45.588;5.186;2023-02-21T19:50:53;33.25;;;32.00;;
76758;SDS011;65701;45.588;5.186;2023-02-21T19:53:19;30.25;;;25.75;;
76758;SDS011;65701;45.588;5.186;2023-02-21T19:55:44;35.75;;;31.75;;
76758;SDS011;65701;45.588;5.186;2023-02-21T19:58:10;35.00;;;32.25;;
76758;SDS011;65701;45.588;5.186;2023-02-21T20:00:36;35.50;;;32.25;;
76758;SDS011;65701;45.588;5.186;2023-02-21T20:03:03;45.50;;;33.25;;
76758;SDS011;65701;45.588;5.186;2023-02-21T20:05:29;36.75;;;32.25;;
76758;SDS011;65701;45.588;5.186;2023-02-21T20:07:55;37.75;;;33.25;;
76758;SDS011;65701;45.588;5.186;2023-02-21T20:10:22;41.75;;;32.25;;
76758;SDS011;65701;45.588;5.186;2023-02-21T20:12:51;32.75;;;28.25;;
76758;SDS011;65701;45.588;5.186;2023-02-21T20:15:19;33.25;;;28.75;;
76758;SDS011;65701;45.588;5.186;2023-02-21T20:17:45;45.50;;;33.75;;
76758;SDS011;65701;45.588;5.186;2023-02-21T20:20:11;38.00;;;33.00;;
76758;SDS011;65701;45.588;5.186;2023-02-21T20:22:37;38.00;;;31.25;;
76758;SDS011;65701;45.588;5.186;2023-02-21T20:25:03;41.00;;;33.75;;
76758;SDS011;65701;45.588;5.186;2023-02-21T20:27:29;35.25;;;29.75;;
76758;SDS011;65701;45.588;5.186;2023-02-21T20:29:55;41.00;;;29.25;;
76758;SDS011;65701;45.588;5.186;2023-02-21T20:32:21;34.75;;;33.00;;
76758;SDS011;65701;45.588;5.186;2023-02-21T20:34:47;33.25;;;31.00;;
76758;SDS011;65701;45.588;5.186;2023-02-21T20:37:15;40.25;;;33.50;;
76758;SDS011;65701;45.588;5.186;2023-02-21T20:39:42;36.25;;;32.25;;
76758;SDS011;65701;45.588;5.186;2023-02-21T20:42:08;43.25;;;35.75;;
76758;SDS011;65701;45.588;5.186;2023-02-21T20:44:34;36.50;;;33.25;;
76758;SDS011;65701;45.588;5.186;2023-02-21T20:47:03;44.75;;;37.00;;
76758;SDS011;65701;45.588;5.186;2023-02-21T20:49:29;38.25;;;34.25;;
76758;SDS011;65701;45.588;5.186;2023-02-21T20:51:56;42.50;;;36.25;;
76758;SDS011;65701;45.588;5.186;2023-02-21T20:54:22;45.50;;;35.00;;
76758;SDS011;65701;45.588;5.186;2023-02-21T20:56:49;43.00;;;35.50;;
76758;SDS011;65701;45.588;5.186;2023-02-21T20:59:18;38.00;;;34.25;;
76758;SDS011;65701;45.588;5.186;2023-02-21T21:01:47;40.00;;;33.75;;
76758;SDS011;65701;45.588;5.186;2023-02-21T21:04:15;41.00;;;36.00;;
76758;SDS011;65701;45.588;5.186;2023-02-21T21:06:42;41.75;;;35.25;;
76758;SDS011;65701;45.588;5.186;2023-02-21T21:09:08;46.00;;;35.50;;
76758;SDS011;65701;45.588;5.186;2023-02-21T21:11:34;42.75;;;34.25;;
76758;SDS011;65701;45.588;5.186;2023-02-21T21:14:02;41.75;;;34.00;;
76758;SDS011;65701;45.588;5.186;2023-02-21T21:16:28;41.25;;;34.75;;
76758;SDS011;65701;45.588;5.186;2023-02-21T21:18:53;41.25;;;33.50;;
76758;SDS011;65701;45.588;5.186;2023-02-21T21:21:26;38.25;;;34.00;;
76758;SDS011;65701;45.588;5.186;2023-02-21T21:23:52;39.50;;;33.25;;
76758;SDS011;65701;45.588;5.186;2023-02-21T21:26:19;39.50;;;33.75;;
76758;SDS011;65701;45.588;5.186;2023-02-21T21:28:45;39.00;;;33.25;;
76758;SDS011;65701;45.588;5.186;2023-02-21T21:31:10;41.50;;;33.25;;
76758;SDS011;65701;45.588;5.186;2023-02-21T21:33:38;42.00;;;33.00;;
76758;SDS011;65701;45.588;5.186;2023-02-21T21:36:08;39.00;;;33.75;;
76758;SDS011;65701;45.588;5.186;2023-02-21T21:38:34;40.75;;;32.75;;
76758;SDS011;65701;45.588;5.186;2023-02-21T21:41:05;36.00;;;32.75;;
76758;SDS011;65701;45.588;5.186;2023-02-21T21:43:38;37.25;;;33.00;;
76758;SDS011;65701;45.588;5.186;2023-02-21T21:46:06;39.50;;;33.50;;
76758;SDS011;65701;45.588;5.186;2023-02-21T21:48:32;42.50;;;32.25;;
76758;SDS011;65701;45.588;5.186;2023-02-21T21:50:58;37.50;;;31.75;;
76758;SDS011;65701;45.588;5.186;2023-02-21T21:53:23;34.75;;;33.75;;
76758;SDS011;65701;45.588;5.186;2023-02-21T21:55:49;35.50;;;32.75;;
76758;SDS011;65701;45.588;5.186;2023-02-21T21:58:15;38.00;;;31.75;;
76758;SDS011;65701;45.588;5.186;2023-02-21T22:00:41;37.25;;;33.50;;
76758;SDS011;65701;45.588;5.186;2023-02-21T22:03:08;33.00;;;31.25;;
76758;SDS011;65701;45.588;5.186;2023-02-21T22:05:38;38.75;;;32.25;;
76758;SDS011;65701;45.588;5.186;2023-02-21T22:08:06;43.00;;;33.75;;
76758;SDS011;65701;45.588;5.186;2023-02-21T22:10:32;36.25;;;31.00;;
76758;SDS011;65701;45.588;5.186;2023-02-21T22:12:58;29.75;;;24.00;;
76758;SDS011;65701;45.588;5.186;2023-02-21T22:15:27;40.50;;;33.25;;
76758;SDS011;65701;45.588;5.186;2023-02-21T22:17:54;37.50;;;33.50;;
76758;SDS011;65701;45.588;5.186;2023-02-21T22:20:23;37.50;;;33.75;;
